Main page
METAR-TAF:

METAR-TAF

Airports :

Bratislava, Slovakia

Bratislava Airport

latitude: 48-12N, longitude: 017-12E, elevation: 133 m

Current weather observation

The report was made 10 minutes ago, at 19:00 UTC
Wind 9 kt from the Northwest
Temperature 6°C
Humidity 75%
Pressure 1023 hPa
Visibility 10 km or more
Few clouds at a height of 1200 ft
Broken clouds at a height of 4400 ft
Broken clouds at a height of 6000 ft

METAR: LZIB 171900Z 32009KT 9999 FEW012 BKN044 BKN060 06/02 Q1023 NOSIG

Time: 20:10 (19:10 UTC)

Forecast

The report was made 2 hours and 10 minutes ago, at 17:00 UTC
Forecast valid from 17 at 18 UTC to 18 at 18 UTC
Wind 8 kt from the Northwest
Visibility 10 km or more
Overcast at a height of 2000 ft
Becoming
from 18 at 05 UTC to 18 at 07 UTC
Few clouds at a height of 3000 ft
Scattered clouds at a height of 6000 ft

TAF: LZIB 171700Z 1718/1818 31008KT 9999 OVC020 BECMG 1805/1807 FEW030 SCT060

Weather observations and forecasts of more than 4000 airports (METAR and TAF reports).

The available stations are represented by yellow and red dots on the map.

Hover mouse over dot to see the name of the station.

Then click to see weather observations and forecasts.

To change the map : click on the green buttons with a black cross to zoom in, on the green button with a dash to zoom out, or on the green arrows for adjacent maps.


METAR-TAF: